sensor_id;sensor_type;location;lat;lon;timestamp;pressure;altitude;pressure_sealevel;temperature;humidity
16355;BME280;8287;51.644;8.494;2023-04-25T00:02:05;99651.66;;;8.78;80.00
16355;BME280;8287;51.644;8.494;2023-04-25T00:04:33;99652.28;;;8.75;79.68
16355;BME280;8287;51.644;8.494;2023-04-25T00:07:00;99659.09;;;8.67;80.43
16355;BME280;8287;51.644;8.494;2023-04-25T00:09:27;99660.03;;;8.71;80.18
16355;BME280;8287;51.644;8.494;2023-04-25T00:11:54;99658.19;;;8.72;80.09
16355;BME280;8287;51.644;8.494;2023-04-25T00:14:21;99660.38;;;8.78;80.18
16355;BME280;8287;51.644;8.494;2023-04-25T00:16:48;99656.31;;;8.72;80.41
16355;BME280;8287;51.644;8.494;2023-04-25T00:19:17;99657.41;;;8.71;81.07
16355;BME280;8287;51.644;8.494;2023-04-25T00:21:45;99656.00;;;8.74;80.98
16355;BME280;8287;51.644;8.494;2023-04-25T00:24:11;99653.50;;;8.69;80.84
16355;BME280;8287;51.644;8.494;2023-04-25T00:26:38;99660.94;;;8.58;81.36
16355;BME280;8287;51.644;8.494;2023-04-25T00:29:05;99653.50;;;8.60;81.40
16355;BME280;8287;51.644;8.494;2023-04-25T00:31:31;99654.75;;;8.71;80.91
16355;BME280;8287;51.644;8.494;2023-04-25T00:33:58;99652.75;;;8.68;80.93
16355;BME280;8287;51.644;8.494;2023-04-25T00:36:24;99649.47;;;8.71;80.90
16355;BME280;8287;51.644;8.494;2023-04-25T00:38:52;99650.56;;;8.70;80.99
16355;BME280;8287;51.644;8.494;2023-04-25T00:41:19;99648.81;;;8.57;81.79
16355;BME280;8287;51.644;8.494;2023-04-25T00:43:47;99649.78;;;8.70;81.18
16355;BME280;8287;51.644;8.494;2023-04-25T00:46:14;99655.84;;;8.70;81.34
16355;BME280;8287;51.644;8.494;2023-04-25T00:48:40;99649.00;;;8.69;81.25
16355;BME280;8287;51.644;8.494;2023-04-25T00:51:07;99655.84;;;8.70;81.09
16355;BME280;8287;51.644;8.494;2023-04-25T00:53:36;99645.75;;;8.64;81.01
16355;BME280;8287;51.644;8.494;2023-04-25T00:56:05;99652.75;;;8.68;81.21
16355;BME280;8287;51.644;8.494;2023-04-25T00:58:31;99645.41;;;8.65;81.18
16355;BME280;8287;51.644;8.494;2023-04-25T01:00:58;99638.63;;;8.73;81.07
16355;BME280;8287;51.644;8.494;2023-04-25T01:03:25;99634.72;;;8.70;81.54
16355;BME280;8287;51.644;8.494;2023-04-25T01:05:53;99635.97;;;8.73;81.66
16355;BME280;8287;51.644;8.494;2023-04-25T01:08:21;99647.75;;;8.67;81.39
16355;BME280;8287;51.644;8.494;2023-04-25T01:10:49;99646.22;;;8.66;81.45
16355;BME280;8287;51.644;8.494;2023-04-25T01:13:17;99645.75;;;8.64;81.82
16355;BME280;8287;51.644;8.494;2023-04-25T01:15:45;99643.41;;;8.62;81.74
16355;BME280;8287;51.644;8.494;2023-04-25T01:18:11;99649.44;;;8.54;82.92
16355;BME280;8287;51.644;8.494;2023-04-25T01:20:38;99639.97;;;8.53;83.70
16355;BME280;8287;51.644;8.494;2023-04-25T01:23:08;99641.19;;;8.47;84.64
16355;BME280;8287;51.644;8.494;2023-04-25T01:25:35;99644.91;;;8.46;84.51
16355;BME280;8287;51.644;8.494;2023-04-25T01:28:03;99652.38;;;8.44;85.10
16355;BME280;8287;51.644;8.494;2023-04-25T01:30:30;99642.88;;;8.43;84.94
16355;BME280;8287;51.644;8.494;2023-04-25T01:32:57;99641.97;;;8.48;85.06
16355;BME280;8287;51.644;8.494;2023-04-25T01:35:25;99642.28;;;8.46;85.09
16355;BME280;8287;51.644;8.494;2023-04-25T01:37:51;99649.88;;;8.48;85.20
16355;BME280;8287;51.644;8.494;2023-04-25T01:40:21;99644.91;;;8.46;85.34
16355;BME280;8287;51.644;8.494;2023-04-25T01:42:48;99646.63;;;8.51;84.86
16355;BME280;8287;51.644;8.494;2023-04-25T01:45:15;99640.41;;;8.47;84.67
16355;BME280;8287;51.644;8.494;2023-04-25T01:47:42;99649.22;;;8.42;85.14
16355;BME280;8287;51.644;8.494;2023-04-25T01:50:12;99654.69;;;8.46;84.90
16355;BME280;8287;51.644;8.494;2023-04-25T01:52:38;99649.72;;;8.44;85.16
16355;BME280;8287;51.644;8.494;2023-04-25T01:55:06;99653.13;;;8.45;84.99
16355;BME280;8287;51.644;8.494;2023-04-25T01:57:34;99650.47;;;8.36;85.63
16355;BME280;8287;51.644;8.494;2023-04-25T02:00:03;99643.75;;;8.30;85.78
16355;BME280;8287;51.644;8.494;2023-04-25T02:02:31;99654.19;;;8.35;85.77
16355;BME280;8287;51.644;8.494;2023-04-25T02:04:58;99661.47;;;8.30;86.26
16355;BME280;8287;51.644;8.494;2023-04-25T02:07:26;99661.47;;;8.30;86.23
16355;BME280;8287;51.644;8.494;2023-04-25T02:09:52;99660.88;;;8.41;86.00
16355;BME280;8287;51.644;8.494;2023-04-25T02:12:19;99663.69;;;8.45;86.68
16355;BME280;8287;51.644;8.494;2023-04-25T02:14:47;99667.25;;;8.40;87.16
16355;BME280;8287;51.644;8.494;2023-04-25T02:17:13;99667.97;;;8.32;87.42
16355;BME280;8287;51.644;8.494;2023-04-25T02:19:41;99658.38;;;8.36;88.03
16355;BME280;8287;51.644;8.494;2023-04-25T02:22:07;99667.06;;;8.37;88.41
16355;BME280;8287;51.644;8.494;2023-04-25T02:24:34;99666.13;;;8.33;89.39
16355;BME280;8287;51.644;8.494;2023-04-25T02:27:01;99668.44;;;8.26;89.98
16355;BME280;8287;51.644;8.494;2023-04-25T02:29:29;99671.25;;;8.29;90.06
16355;BME280;8287;51.644;8.494;2023-04-25T02:31:57;99667.00;;;8.20;90.90
16355;BME280;8287;51.644;8.494;2023-04-25T02:34:23;99668.38;;;8.17;91.61
16355;BME280;8287;51.644;8.494;2023-04-25T02:36:50;99668.38;;;8.17;92.03
16355;BME280;8287;51.644;8.494;2023-04-25T02:39:17;99675.25;;;8.27;91.95
16355;BME280;8287;51.644;8.494;2023-04-25T02:41:44;99673.75;;;8.34;91.78
16355;BME280;8287;51.644;8.494;2023-04-25T02:44:10;99670.50;;;8.37;92.08
16355;BME280;8287;51.644;8.494;2023-04-25T02:46:37;99679.34;;;8.33;91.88
16355;BME280;8287;51.644;8.494;2023-04-25T02:49:05;99676.53;;;8.29;92.33
16355;BME280;8287;51.644;8.494;2023-04-25T02:51:31;99676.66;;;8.24;92.79
16355;BME280;8287;51.644;8.494;2023-04-25T02:53:58;99681.88;;;8.16;93.18
16355;BME280;8287;51.644;8.494;2023-04-25T02:56:25;99665.44;;;8.19;93.71
16355;BME280;8287;51.644;8.494;2023-04-25T02:58:52;99679.69;;;8.18;93.90
16355;BME280;8287;51.644;8.494;2023-04-25T03:01:19;99674.00;;;8.24;93.88
16355;BME280;8287;51.644;8.494;2023-04-25T03:03:45;99676.97;;;8.23;93.87
16355;BME280;8287;51.644;8.494;2023-04-25T03:06:13;99679.16;;;8.29;94.16
16355;BME280;8287;51.644;8.494;2023-04-25T03:08:40;99678.53;;;8.32;93.83
16355;BME280;8287;51.644;8.494;2023-04-25T03:11:06;99682.28;;;8.31;94.15
16355;BME280;8287;51.644;8.494;2023-04-25T03:13:33;99684.31;;;8.34;94.38
16355;BME280;8287;51.644;8.494;2023-04-25T03:16:00;99688.81;;;8.34;94.35
16355;BME280;8287;51.644;8.494;2023-04-25T03:18:27;99679.44;;;8.28;94.67
16355;BME280;8287;51.644;8.494;2023-04-25T03:20:53;99684.56;;;8.24;95.03
16355;BME280;8287;51.644;8.494;2023-04-25T03:23:21;99679.44;;;8.19;95.33
16355;BME280;8287;51.644;8.494;2023-04-25T03:25:48;99675.56;;;8.25;95.36
16355;BME280;8287;51.644;8.494;2023-04-25T03:28:14;99677.13;;;8.26;95.39
16355;BME280;8287;51.644;8.494;2023-04-25T03:30:41;99681.50;;;8.31;95.84
16355;BME280;8287;51.644;8.494;2023-04-25T03:33:07;99680.78;;;8.17;96.19
16355;BME280;8287;51.644;8.494;2023-04-25T03:35:34;99685.97;;;8.22;96.33
16355;BME280;8287;51.644;8.494;2023-04-25T03:38:00;99695.13;;;8.24;96.20
16355;BME280;8287;51.644;8.494;2023-04-25T03:40:28;99681.44;;;8.22;96.77
16355;BME280;8287;51.644;8.494;2023-04-25T03:42:55;99692.97;;;8.26;96.61
16355;BME280;8287;51.644;8.494;2023-04-25T03:45:21;99689.06;;;8.24;96.87
16355;BME280;8287;51.644;8.494;2023-04-25T03:47:48;99698.25;;;8.26;97.01
16355;BME280;8287;51.644;8.494;2023-04-25T03:50:15;99706.63;;;8.28;97.02
16355;BME280;8287;51.644;8.494;2023-04-25T03:52:42;99698.66;;;8.20;97.67
16355;BME280;8287;51.644;8.494;2023-04-25T03:55:09;99699.81;;;8.27;97.66
16355;BME280;8287;51.644;8.494;2023-04-25T03:57:37;99703.84;;;8.33;97.40
16355;BME280;8287;51.644;8.494;2023-04-25T04:00:04;99707.56;;;8.24;97.52
16355;BME280;8287;51.644;8.494;2023-04-25T04:02:31;99706.63;;;8.28;97.59
16355;BME280;8287;51.644;8.494;2023-04-25T04:04:59;99721.28;;;8.34;97.60
16355;BME280;8287;51.644;8.494;2023-04-25T04:07:25;99710.78;;;8.21;97.42
16355;BME280;8287;51.644;8.494;2023-04-25T04:09:52;99712.81;;;8.24;97.62
16355;BME280;8287;51.644;8.494;2023-04-25T04:12:19;99723.84;;;8.26;97.21
16355;BME280;8287;51.644;8.494;2023-04-25T04:14:46;99718.41;;;8.22;97.81
16355;BME280;8287;51.644;8.494;2023-04-25T04:17:13;99732.38;;;8.23;97.64
16355;BME280;8287;51.644;8.494;2023-04-25T04:19:39;99729.59;;;8.28;97.26
16355;BME280;8287;51.644;8.494;2023-04-25T04:22:06;99735.19;;;8.26;97.56
16355;BME280;8287;51.644;8.494;2023-04-25T04:24:32;99732.69;;;8.21;97.35
16355;BME280;8287;51.644;8.494;2023-04-25T04:26:59;99740.13;;;8.19;97.42
16355;BME280;8287;51.644;8.494;2023-04-25T04:29:26;99742.25;;;8.17;97.57
16355;BME280;8287;51.644;8.494;2023-04-25T04:31:54;99753.50;;;8.23;97.63
16355;BME280;8287;51.644;8.494;2023-04-25T04:34:20;99738.00;;;8.30;97.01
16355;BME280;8287;51.644;8.494;2023-04-25T04:36:47;99748.41;;;8.26;97.51
16355;BME280;8287;51.644;8.494;2023-04-25T04:39:14;99745.75;;;8.26;97.26
16355;BME280;8287;51.644;8.494;2023-04-25T04:41:40;99745.56;;;8.23;97.11
16355;BME280;8287;51.644;8.494;2023-04-25T04:44:08;99756.78;;;8.28;97.03
16355;BME280;8287;51.644;8.494;2023-04-25T04:46:35;99757.06;;;8.27;96.73
16355;BME280;8287;51.644;8.494;2023-04-25T04:49:05;99762.72;;;8.34;96.79
16355;BME280;8287;51.644;8.494;2023-04-25T04:51:31;99762.88;;;8.37;96.45
16355;BME280;8287;51.644;8.494;2023-04-25T04:53:58;99766.28;;;8.38;96.16
16355;BME280;8287;51.644;8.494;2023-04-25T04:56:27;99770.34;;;8.35;96.32
16355;BME280;8287;51.644;8.494;2023-04-25T04:58:54;99776.19;;;8.32;95.96
16355;BME280;8287;51.644;8.494;2023-04-25T05:01:21;99789.91;;;8.34;95.76
16355;BME280;8287;51.644;8.494;2023-04-25T05:03:48;99787.38;;;8.29;95.66
16355;BME280;8287;51.644;8.494;2023-04-25T05:06:16;99788.31;;;8.33;95.29
16355;BME280;8287;51.644;8.494;2023-04-25T05:08:42;99796.91;;;8.39;95.10
16355;BME280;8287;51.644;8.494;2023-04-25T05:11:09;99799.03;;;8.37;94.19
16355;BME280;8287;51.644;8.494;2023-04-25T05:13:36;99804.66;;;8.35;94.19
16355;BME280;8287;51.644;8.494;2023-04-25T05:16:03;99797.06;;;8.42;94.09
16355;BME280;8287;51.644;8.494;2023-04-25T05:18:30;99798.50;;;8.48;94.16
16355;BME280;8287;51.644;8.494;2023-04-25T05:20:56;99805.22;;;8.54;94.23
16355;BME280;8287;51.644;8.494;2023-04-25T05:23:24;99806.88;;;8.50;94.44
16355;BME280;8287;51.644;8.494;2023-04-25T05:25:53;99806.59;;;8.52;94.39
16355;BME280;8287;51.644;8.494;2023-04-25T05:28:19;99810.19;;;8.56;93.96
16355;BME280;8287;51.644;8.494;2023-04-25T05:30:46;99809.28;;;8.60;93.66
16355;BME280;8287;51.644;8.494;2023-04-25T05:33:13;99812.50;;;8.57;94.02
16355;BME280;8287;51.644;8.494;2023-04-25T05:35:39;99810.22;;;8.64;93.67
16355;BME280;8287;51.644;8.494;2023-04-25T05:38:06;99814.88;;;8.67;93.51
16355;BME280;8287;51.644;8.494;2023-04-25T05:40:34;99811.78;;;8.65;93.08
16355;BME280;8287;51.644;8.494;2023-04-25T05:43:01;99814.13;;;8.67;92.76
16355;BME280;8287;51.644;8.494;2023-04-25T05:45:27;99824.06;;;8.70;93.21
16355;BME280;8287;51.644;8.494;2023-04-25T05:47:54;99827.94;;;8.64;92.07
16355;BME280;8287;51.644;8.494;2023-04-25T05:50:20;99827.50;;;8.70;91.61
16355;BME280;8287;51.644;8.494;2023-04-25T05:52:47;99834.34;;;8.71;91.32
16355;BME280;8287;51.644;8.494;2023-04-25T05:55:14;99833.13;;;8.77;91.19
16355;BME280;8287;51.644;8.494;2023-04-25T05:57:42;99841.72;;;8.83;91.29
16355;BME280;8287;51.644;8.494;2023-04-25T06:00:12;99847.28;;;8.81;91.02
16355;BME280;8287;51.644;8.494;2023-04-25T06:02:40;99842.97;;;8.85;90.61
16355;BME280;8287;51.644;8.494;2023-04-25T06:05:07;99836.28;;;8.88;90.23
16355;BME280;8287;51.644;8.494;2023-04-25T06:07:34;99845.94;;;8.92;89.99
16355;BME280;8287;51.644;8.494;2023-04-25T06:10:00;99850.28;;;8.88;89.98
16355;BME280;8287;51.644;8.494;2023-04-25T06:12:27;99857.91;;;8.90;90.23
16355;BME280;8287;51.644;8.494;2023-04-25T06:14:55;99859.13;;;8.92;90.39
16355;BME280;8287;51.644;8.494;2023-04-25T06:17:22;99859.47;;;8.91;90.46
16355;BME280;8287;51.644;8.494;2023-04-25T06:19:48;99855.91;;;8.95;90.44
16355;BME280;8287;51.644;8.494;2023-04-25T06:22:15;99859.50;;;8.99;89.70
16355;BME280;8287;51.644;8.494;2023-04-25T06:24:41;99871.75;;;8.95;90.09
16355;BME280;8287;51.644;8.494;2023-04-25T06:27:08;99869.13;;;8.95;89.95
16355;BME280;8287;51.644;8.494;2023-04-25T06:29:35;99870.22;;;8.94;90.00
16355;BME280;8287;51.644;8.494;2023-04-25T06:32:03;99868.47;;;8.90;90.10
16355;BME280;8287;51.644;8.494;2023-04-25T06:34:30;99879.41;;;9.05;89.49
16355;BME280;8287;51.644;8.494;2023-04-25T06:36:56;99871.28;;;8.93;89.59
16355;BME280;8287;51.644;8.494;2023-04-25T06:39:23;99875.06;;;9.01;88.86
16355;BME280;8287;51.644;8.494;2023-04-25T06:41:50;99874.94;;;9.06;88.87
16355;BME280;8287;51.644;8.494;2023-04-25T06:44:17;99875.06;;;9.09;88.47
16355;BME280;8287;51.644;8.494;2023-04-25T06:46:43;99879.94;;;9.16;87.88
16355;BME280;8287;51.644;8.494;2023-04-25T06:49:11;99880.44;;;9.26;87.21
16355;BME280;8287;51.644;8.494;2023-04-25T06:51:38;99885.88;;;9.30;87.29
16355;BME280;8287;51.644;8.494;2023-04-25T06:54:05;99890.69;;;9.28;84.62
16355;BME280;8287;51.644;8.494;2023-04-25T06:56:32;99902.19;;;9.23;84.04
16355;BME280;8287;51.644;8.494;2023-04-25T06:58:58;99890.69;;;9.28;83.38
16355;BME280;8287;51.644;8.494;2023-04-25T07:01:26;99899.44;;;9.28;82.84
16355;BME280;8287;51.644;8.494;2023-04-25T07:03:52;99901.50;;;9.48;83.00
16355;BME280;8287;51.644;8.494;2023-04-25T07:06:20;99904.50;;;9.55;82.94
16355;BME280;8287;51.644;8.494;2023-04-25T07:08:47;99905.09;;;9.52;81.58
16355;BME280;8287;51.644;8.494;2023-04-25T07:11:13;99905.91;;;9.69;81.67
16355;BME280;8287;51.644;8.494;2023-04-25T07:13:40;99902.97;;;9.71;81.19
16355;BME280;8287;51.644;8.494;2023-04-25T07:16:06;99903.31;;;9.78;80.72
16355;BME280;8287;51.644;8.494;2023-04-25T07:18:33;99905.31;;;9.81;79.24
16355;BME280;8287;51.644;8.494;2023-04-25T07:21:00;99909.22;;;9.92;78.83
16355;BME280;8287;51.644;8.494;2023-04-25T07:23:27;99914.22;;;9.85;77.72
16355;BME280;8287;51.644;8.494;2023-04-25T07:25:55;99914.34;;;9.88;77.54
16355;BME280;8287;51.644;8.494;2023-04-25T07:28:21;99918.88;;;9.96;78.19
16355;BME280;8287;51.644;8.494;2023-04-25T07:30:48;99914.84;;;9.99;77.55
16355;BME280;8287;51.644;8.494;2023-04-25T07:33:15;99920.13;;;9.99;76.35
16355;BME280;8287;51.644;8.494;2023-04-25T07:35:41;99915.03;;;10.19;76.78
16355;BME280;8287;51.644;8.494;2023-04-25T07:38:08;99918.31;;;10.25;76.05
16355;BME280;8287;51.644;8.494;2023-04-25T07:40:36;99922.69;;;10.29;76.10
16355;BME280;8287;51.644;8.494;2023-04-25T07:43:03;99916.44;;;10.34;74.88
16355;BME280;8287;51.644;8.494;2023-04-25T07:45:30;99922.38;;;10.31;74.63
16355;BME280;8287;51.644;8.494;2023-04-25T07:47:56;99929.06;;;10.20;73.54
16355;BME280;8287;51.644;8.494;2023-04-25T07:50:23;99935.31;;;10.15;74.34
16355;BME280;8287;51.644;8.494;2023-04-25T07:52:50;99936.69;;;10.13;74.17
16355;BME280;8287;51.644;8.494;2023-04-25T07:55:16;99933.75;;;10.23;74.85
16355;BME280;8287;51.644;8.494;2023-04-25T07:57:44;99935.31;;;10.32;75.71
16355;BME280;8287;51.644;8.494;2023-04-25T08:00:12;99933.44;;;10.24;72.40
16355;BME280;8287;51.644;8.494;2023-04-25T08:02:40;99947.13;;;10.26;72.12
16355;BME280;8287;51.644;8.494;2023-04-25T08:05:07;99943.41;;;10.44;72.85
16355;BME280;8287;51.644;8.494;2023-04-25T08:07:37;99958.50;;;10.52;73.34
16355;BME280;8287;51.644;8.494;2023-04-25T08:10:04;99946.81;;;10.70;73.12
16355;BME280;8287;51.644;8.494;2023-04-25T08:12:31;99950.53;;;10.86;73.20
16355;BME280;8287;51.644;8.494;2023-04-25T08:14:59;99951.31;;;10.87;71.30
16355;BME280;8287;51.644;8.494;2023-04-25T08:17:26;99962.09;;;10.90;70.26
16355;BME280;8287;51.644;8.494;2023-04-25T08:19:52;99962.06;;;10.82;67.74
16355;BME280;8287;51.644;8.494;2023-04-25T08:22:19;99966.59;;;10.90;68.71
16355;BME280;8287;51.644;8.494;2023-04-25T08:24:45;99961.44;;;10.93;66.13
16355;BME280;8287;51.644;8.494;2023-04-25T08:27:12;99968.94;;;10.91;64.05
16355;BME280;8287;51.644;8.494;2023-04-25T08:29:39;99973.47;;;10.82;64.05
16355;BME280;8287;51.644;8.494;2023-04-25T08:32:06;99972.84;;;10.94;67.74
16355;BME280;8287;51.644;8.494;2023-04-25T08:34:33;99976.81;;;11.17;65.81
16355;BME280;8287;51.644;8.494;2023-04-25T08:37:00;99979.84;;;11.53;63.41
16355;BME280;8287;51.644;8.494;2023-04-25T08:39:26;99983.13;;;11.58;60.21
16355;BME280;8287;51.644;8.494;2023-04-25T08:41:53;99993.34;;;11.77;61.85
16355;BME280;8287;51.644;8.494;2023-04-25T08:44:20;99998.63;;;11.85;63.00
16355;BME280;8287;51.644;8.494;2023-04-25T08:46:47;100004.50;;;11.62;57.84
16355;BME280;8287;51.644;8.494;2023-04-25T08:49:17;100006.69;;;11.51;60.52
16355;BME280;8287;51.644;8.494;2023-04-25T08:51:45;100011.84;;;11.48;59.71
16355;BME280;8287;51.644;8.494;2023-04-25T08:54:13;100004.59;;;11.28;59.62
16355;BME280;8287;51.644;8.494;2023-04-25T08:56:41;100017.53;;;11.21;60.54
16355;BME280;8287;51.644;8.494;2023-04-25T08:59:10;100016.91;;;11.24;61.86
16355;BME280;8287;51.644;8.494;2023-04-25T09:01:37;100033.75;;;11.28;61.61
16355;BME280;8287;51.644;8.494;2023-04-25T09:04:03;100031.75;;;11.08;61.17
16355;BME280;8287;51.644;8.494;2023-04-25T09:06:32;100035.94;;;11.09;60.69
16355;BME280;8287;51.644;8.494;2023-04-25T09:09:02;100034.56;;;11.20;60.31
16355;BME280;8287;51.644;8.494;2023-04-25T09:11:30;100041.56;;;11.16;58.34
16355;BME280;8287;51.644;8.494;2023-04-25T09:14:10;100041.09;;;11.14;59.25
16355;BME280;8287;51.644;8.494;2023-04-25T09:16:57;100044.97;;;11.25;57.12
16355;BME280;8287;51.644;8.494;2023-04-25T09:19:26;100049.78;;;11.31;57.51
16355;BME280;8287;51.644;8.494;2023-04-25T09:21:55;100043.75;;;11.14;56.67
16355;BME280;8287;51.644;8.494;2023-04-25T09:24:30;100053.22;;;11.32;57.54
16355;BME280;8287;51.644;8.494;2023-04-25T09:26:57;100057.84;;;11.52;57.33
16355;BME280;8287;51.644;8.494;2023-04-25T09:29:29;100064.44;;;11.63;55.70
16355;BME280;8287;51.644;8.494;2023-04-25T09:32:14;100047.72;;;11.54;55.00
16355;BME280;8287;51.644;8.494;2023-04-25T09:34:42;100057.25;;;11.55;52.85
16355;BME280;8287;51.644;8.494;2023-04-25T09:37:10;100066.66;;;11.35;53.25
16355;BME280;8287;51.644;8.494;2023-04-25T09:39:37;100065.88;;;11.26;54.02
16355;BME280;8287;51.644;8.494;2023-04-25T09:42:04;100074.63;;;11.10;53.66
16355;BME280;8287;51.644;8.494;2023-04-25T09:44:31;100077.16;;;11.06;55.74
16355;BME280;8287;51.644;8.494;2023-04-25T09:46:57;100083.22;;;11.07;56.62
16355;BME280;8287;51.644;8.494;2023-04-25T09:49:25;100074.00;;;11.04;57.29
16355;BME280;8287;51.644;8.494;2023-04-25T09:51:55;100082.28;;;10.94;57.66
16355;BME280;8287;51.644;8.494;2023-04-25T09:54:24;100082.59;;;10.93;57.90
16355;BME280;8287;51.644;8.494;2023-04-25T09:56:52;100089.59;;;10.97;58.21
16355;BME280;8287;51.644;8.494;2023-04-25T09:59:20;100089.31;;;10.90;58.73
16355;BME280;8287;51.644;8.494;2023-04-25T10:01:48;100089.31;;;10.90;59.32
16355;BME280;8287;51.644;8.494;2023-04-25T10:04:19;100091.63;;;10.92;59.41
16355;BME280;8287;51.644;8.494;2023-04-25T10:06:48;100101.16;;;10.84;60.79
16355;BME280;8287;51.644;8.494;2023-04-25T10:09:16;100097.69;;;10.84;61.07
16355;BME280;8287;51.644;8.494;2023-04-25T10:11:46;100095.53;;;10.86;61.61
16355;BME280;8287;51.644;8.494;2023-04-25T10:14:13;100094.72;;;10.77;59.45
16355;BME280;8287;51.644;8.494;2023-04-25T10:16:41;100093.66;;;10.78;60.23
16355;BME280;8287;51.644;8.494;2023-04-25T10:19:08;100098.50;;;10.84;59.76
16355;BME280;8287;51.644;8.494;2023-04-25T10:21:36;100103.78;;;10.93;60.66
16355;BME280;8287;51.644;8.494;2023-04-25T10:24:06;100097.25;;;10.99;59.52
16355;BME280;8287;51.644;8.494;2023-04-25T10:26:32;100101.94;;;11.10;59.87
16355;BME280;8287;51.644;8.494;2023-04-25T10:29:02;100095.38;;;11.25;58.76
16355;BME280;8287;51.644;8.494;2023-04-25T10:31:30;100103.44;;;11.45;58.72
16355;BME280;8287;51.644;8.494;2023-04-25T10:33:57;100107.38;;;11.31;57.14
16355;BME280;8287;51.644;8.494;2023-04-25T10:36:24;100104.88;;;11.26;56.24
16355;BME280;8287;51.644;8.494;2023-04-25T10:38:52;100101.47;;;11.25;56.20
16355;BME280;8287;51.644;8.494;2023-04-25T10:41:20;100101.28;;;11.39;57.26
16355;BME280;8287;51.644;8.494;2023-04-25T10:43:49;100107.50;;;11.43;57.32
16355;BME280;8287;51.644;8.494;2023-04-25T10:46:19;100107.38;;;11.31;56.71
16355;BME280;8287;51.644;8.494;2023-04-25T10:48:47;100111.13;;;11.30;57.73
16355;BME280;8287;51.644;8.494;2023-04-25T10:51:19;100105.47;;;11.57;58.84
16355;BME280;8287;51.644;8.494;2023-04-25T10:53:46;100097.47;;;11.82;57.78
16355;BME280;8287;51.644;8.494;2023-04-25T10:56:16;100096.69;;;11.90;56.74
16355;BME280;8287;51.644;8.494;2023-04-25T10:58:44;100099.63;;;11.89;55.69
16355;BME280;8287;51.644;8.494;2023-04-25T11:01:12;100111.03;;;11.89;56.07
16355;BME280;8287;51.644;8.494;2023-04-25T11:03:42;100104.06;;;11.68;54.88
16355;BME280;8287;51.644;8.494;2023-04-25T11:06:18;100118.63;;;11.45;54.52
16355;BME280;8287;51.644;8.494;2023-04-25T11:08:48;100114.56;;;11.39;54.68
16355;BME280;8287;51.644;8.494;2023-04-25T11:11:15;100114.69;;;11.34;56.61
16355;BME280;8287;51.644;8.494;2023-04-25T11:13:42;100121.75;;;11.30;57.92
16355;BME280;8287;51.644;8.494;2023-04-25T11:16:09;100121.88;;;11.08;59.49
16355;BME280;8287;51.644;8.494;2023-04-25T11:18:35;100115.34;;;11.14;61.86
16355;BME280;8287;51.644;8.494;2023-04-25T11:21:05;100116.91;;;10.98;59.37
16355;BME280;8287;51.644;8.494;2023-04-25T11:23:32;100112.53;;;11.19;60.83
16355;BME280;8287;51.644;8.494;2023-04-25T11:25:59;100117.66;;;11.58;62.36
16355;BME280;8287;51.644;8.494;2023-04-25T11:28:26;100111.00;;;11.98;63.98
16355;BME280;8287;51.644;8.494;2023-04-25T11:30:53;100108.38;;;12.27;59.48
16355;BME280;8287;51.644;8.494;2023-04-25T11:33:23;100102.25;;;12.35;60.55
16355;BME280;8287;51.644;8.494;2023-04-25T11:35:50;100112.28;;;12.29;58.66
16355;BME280;8287;51.644;8.494;2023-04-25T11:38:18;100118.25;;;12.26;57.67
16355;BME280;8287;51.644;8.494;2023-04-25T11:40:49;100109.53;;;12.17;57.04
16355;BME280;8287;51.644;8.494;2023-04-25T11:43:17;100118.84;;;12.32;56.94
16355;BME280;8287;51.644;8.494;2023-04-25T11:45:46;100121.47;;;12.61;56.87
16355;BME280;8287;51.644;8.494;2023-04-25T11:48:13;100129.63;;;12.85;56.03
16355;BME280;8287;51.644;8.494;2023-04-25T11:50:39;100123.78;;;12.71;53.39
16355;BME280;8287;51.644;8.494;2023-04-25T11:53:06;100118.00;;;12.69;54.04
16355;BME280;8287;51.644;8.494;2023-04-25T11:55:35;100131.34;;;12.60;51.03
16355;BME280;8287;51.644;8.494;2023-04-25T11:58:03;100126.50;;;12.33;50.37
16355;BME280;8287;51.644;8.494;2023-04-25T12:00:30;100122.03;;;12.17;51.31
16355;BME280;8287;51.644;8.494;2023-04-25T12:02:57;100125.34;;;12.05;53.16
16355;BME280;8287;51.644;8.494;2023-04-25T12:05:26;100123.09;;;12.24;52.19
16355;BME280;8287;51.644;8.494;2023-04-25T12:07:53;100130.03;;;12.46;53.05
16355;BME280;8287;51.644;8.494;2023-04-25T12:10:20;100114.19;;;12.78;52.56
16355;BME280;8287;51.644;8.494;2023-04-25T12:12:48;100102.59;;;13.03;52.25
16355;BME280;8287;51.644;8.494;2023-04-25T12:15:16;100121.81;;;13.09;53.48
16355;BME280;8287;51.644;8.494;2023-04-25T12:17:45;100127.00;;;13.05;49.67
16355;BME280;8287;51.644;8.494;2023-04-25T12:20:13;100135.00;;;12.76;48.91
16355;BME280;8287;51.644;8.494;2023-04-25T12:22:42;100128.72;;;12.52;50.84
16355;BME280;8287;51.644;8.494;2023-04-25T12:25:11;100137.22;;;12.45;50.36
16355;BME280;8287;51.644;8.494;2023-04-25T12:27:38;100141.63;;;12.33;49.61
16355;BME280;8287;51.644;8.494;2023-04-25T12:30:10;100146.81;;;12.29;49.37
16355;BME280;8287;51.644;8.494;2023-04-25T12:32:37;100149.38;;;12.17;49.68
16355;BME280;8287;51.644;8.494;2023-04-25T12:35:04;100148.94;;;12.07;49.48
16355;BME280;8287;51.644;8.494;2023-04-25T12:37:31;100149.38;;;12.09;51.18
16355;BME280;8287;51.644;8.494;2023-04-25T12:39:58;100141.63;;;12.04;50.58
16355;BME280;8287;51.644;8.494;2023-04-25T12:42:24;100146.88;;;12.12;51.48
16355;BME280;8287;51.644;8.494;2023-04-25T12:44:51;100148.28;;;12.10;50.88
16355;BME280;8287;51.644;8.494;2023-04-25T12:47:19;100151.44;;;12.12;50.94
16355;BME280;8287;51.644;8.494;2023-04-25T12:49:46;100144.34;;;12.24;52.43
16355;BME280;8287;51.644;8.494;2023-04-25T12:52:12;100151.31;;;12.37;53.62
16355;BME280;8287;51.644;8.494;2023-04-25T12:54:39;100144.66;;;12.52;52.69
16355;BME280;8287;51.644;8.494;2023-04-25T12:57:05;100147.31;;;12.81;51.34
16355;BME280;8287;51.644;8.494;2023-04-25T12:59:32;100149.81;;;13.26;53.55
16355;BME280;8287;51.644;8.494;2023-04-25T13:01:59;100137.44;;;13.63;51.92
16355;BME280;8287;51.644;8.494;2023-04-25T13:04:27;100145.56;;;13.66;51.21
16355;BME280;8287;51.644;8.494;2023-04-25T13:06:53;100146.25;;;12.73;49.50
16355;BME280;8287;51.644;8.494;2023-04-25T13:09:20;100145.16;;;13.03;50.89
16355;BME280;8287;51.644;8.494;2023-04-25T13:11:47;100151.78;;;13.18;51.80
16355;BME280;8287;51.644;8.494;2023-04-25T13:14:13;100146.47;;;13.18;52.98